sensor_id;sensor_type;location;lat;lon;timestamp;P1;durP1;ratioP1;P2;durP2;ratioP2
69748;SDS011;57019;52.354;6.584;2022-10-31T00:00:00;9.60;;;3.80;;
69748;SDS011;57019;52.354;6.584;2022-10-31T00:02:26;8.47;;;3.17;;
69748;SDS011;57019;52.354;6.584;2022-10-31T00:04:51;10.07;;;4.10;;
69748;SDS011;57019;52.354;6.584;2022-10-31T00:07:17;8.67;;;3.50;;
69748;SDS011;57019;52.354;6.584;2022-10-31T00:09:42;9.33;;;3.90;;
69748;SDS011;57019;52.354;6.584;2022-10-31T00:12:07;8.67;;;3.33;;
69748;SDS011;57019;52.354;6.584;2022-10-31T00:14:32;10.67;;;3.87;;
69748;SDS011;57019;52.354;6.584;2022-10-31T00:16:58;10.03;;;3.73;;
69748;SDS011;57019;52.354;6.584;2022-10-31T00:19:23;8.80;;;3.60;;
69748;SDS011;57019;52.354;6.584;2022-10-31T00:21:50;12.40;;;4.10;;
69748;SDS011;57019;52.354;6.584;2022-10-31T00:24:17;10.80;;;3.83;;
69748;SDS011;57019;52.354;6.584;2022-10-31T00:26:42;9.57;;;3.57;;
69748;SDS011;57019;52.354;6.584;2022-10-31T00:29:07;9.13;;;3.43;;
69748;SDS011;57019;52.354;6.584;2022-10-31T00:31:33;8.32;;;3.58;;
69748;SDS011;57019;52.354;6.584;2022-10-31T00:33:58;7.43;;;3.20;;
69748;SDS011;57019;52.354;6.584;2022-10-31T00:36:23;9.30;;;3.37;;
69748;SDS011;57019;52.354;6.584;2022-10-31T00:38:49;8.53;;;3.47;;
69748;SDS011;57019;52.354;6.584;2022-10-31T00:41:15;8.87;;;3.50;;
69748;SDS011;57019;52.354;6.584;2022-10-31T00:43:42;10.23;;;3.55;;
69748;SDS011;57019;52.354;6.584;2022-10-31T00:46:09;10.48;;;3.90;;
69748;SDS011;57019;52.354;6.584;2022-10-31T00:48:35;9.53;;;3.47;;
69748;SDS011;57019;52.354;6.584;2022-10-31T00:51:00;7.93;;;3.27;;
69748;SDS011;57019;52.354;6.584;2022-10-31T00:53:25;7.00;;;2.97;;
69748;SDS011;57019;52.354;6.584;2022-10-31T00:55:51;7.87;;;3.13;;
69748;SDS011;57019;52.354;6.584;2022-10-31T00:58:16;8.90;;;3.10;;
69748;SDS011;57019;52.354;6.584;2022-10-31T01:00:42;8.83;;;3.40;;
69748;SDS011;57019;52.354;6.584;2022-10-31T01:03:07;8.32;;;3.22;;
69748;SDS011;57019;52.354;6.584;2022-10-31T01:05:33;8.23;;;3.03;;
69748;SDS011;57019;52.354;6.584;2022-10-31T01:07:58;9.03;;;3.20;;
69748;SDS011;57019;52.354;6.584;2022-10-31T01:10:24;7.57;;;3.05;;
69748;SDS011;57019;52.354;6.584;2022-10-31T01:12:49;8.27;;;3.07;;
69748;SDS011;57019;52.354;6.584;2022-10-31T01:15:19;8.80;;;3.63;;
69748;SDS011;57019;52.354;6.584;2022-10-31T01:17:46;7.30;;;3.10;;
69748;SDS011;57019;52.354;6.584;2022-10-31T01:20:13;8.02;;;3.28;;
69748;SDS011;57019;52.354;6.584;2022-10-31T01:22:39;8.30;;;3.10;;
69748;SDS011;57019;52.354;6.584;2022-10-31T01:25:07;8.43;;;3.30;;
69748;SDS011;57019;52.354;6.584;2022-10-31T01:27:33;7.23;;;2.83;;
69748;SDS011;57019;52.354;6.584;2022-10-31T01:29:59;8.43;;;3.05;;
69748;SDS011;57019;52.354;6.584;2022-10-31T01:32:24;8.50;;;3.10;;
69748;SDS011;57019;52.354;6.584;2022-10-31T01:34:50;8.60;;;3.10;;
69748;SDS011;57019;52.354;6.584;2022-10-31T01:37:15;7.83;;;3.10;;
69748;SDS011;57019;52.354;6.584;2022-10-31T01:39:40;7.67;;;2.93;;
69748;SDS011;57019;52.354;6.584;2022-10-31T01:42:06;7.03;;;2.85;;
69748;SDS011;57019;52.354;6.584;2022-10-31T01:46:58;7.97;;;2.93;;
69748;SDS011;57019;52.354;6.584;2022-10-31T01:52:03;7.90;;;2.80;;
69748;SDS011;57019;52.354;6.584;2022-10-31T01:54:37;7.45;;;3.00;;
69748;SDS011;57019;52.354;6.584;2022-10-31T01:57:07;7.35;;;2.92;;
69748;SDS011;57019;52.354;6.584;2022-10-31T01:59:36;8.07;;;3.00;;
69748;SDS011;57019;52.354;6.584;2022-10-31T02:02:07;9.15;;;3.05;;
69748;SDS011;57019;52.354;6.584;2022-10-31T02:04:33;6.80;;;2.80;;
69748;SDS011;57019;52.354;6.584;2022-10-31T02:07:03;8.13;;;2.92;;
69748;SDS011;57019;52.354;6.584;2022-10-31T02:09:32;8.05;;;2.80;;
69748;SDS011;57019;52.354;6.584;2022-10-31T02:11:59;7.47;;;3.00;;
69748;SDS011;57019;52.354;6.584;2022-10-31T02:14:26;7.68;;;2.85;;
69748;SDS011;57019;52.354;6.584;2022-10-31T02:16:53;9.50;;;2.90;;
69748;SDS011;57019;52.354;6.584;2022-10-31T02:20:09;7.97;;;2.90;;
69748;SDS011;57019;52.354;6.584;2022-10-31T02:22:27;8.27;;;2.72;;
69748;SDS011;57019;52.354;6.584;2022-10-31T02:36:28;6.97;;;2.78;;
69748;SDS011;57019;52.354;6.584;2022-10-31T02:41:44;8.18;;;2.72;;
69748;SDS011;57019;52.354;6.584;2022-10-31T02:47:15;6.43;;;2.30;;
69748;SDS011;57019;52.354;6.584;2022-10-31T02:49:45;6.90;;;2.65;;
69748;SDS011;57019;52.354;6.584;2022-10-31T02:52:29;9.02;;;2.72;;
69748;SDS011;57019;52.354;6.584;2022-10-31T02:54:57;7.57;;;2.50;;
69748;SDS011;57019;52.354;6.584;2022-10-31T02:57:29;6.90;;;2.70;;
69748;SDS011;57019;52.354;6.584;2022-10-31T03:00:00;6.78;;;2.50;;
69748;SDS011;57019;52.354;6.584;2022-10-31T03:05:11;6.18;;;2.33;;
69748;SDS011;57019;52.354;6.584;2022-10-31T03:08:09;7.30;;;2.40;;
69748;SDS011;57019;52.354;6.584;2022-10-31T03:13:31;6.25;;;2.40;;
69748;SDS011;57019;52.354;6.584;2022-10-31T03:18:50;6.20;;;2.40;;
69748;SDS011;57019;52.354;6.584;2022-10-31T03:21:21;6.50;;;2.22;;
69748;SDS011;57019;52.354;6.584;2022-10-31T03:23:53;6.63;;;2.47;;
69748;SDS011;57019;52.354;6.584;2022-10-31T03:26:19;7.07;;;2.22;;
69748;SDS011;57019;52.354;6.584;2022-10-31T03:28:49;5.88;;;2.10;;
69748;SDS011;57019;52.354;6.584;2022-10-31T03:31:19;6.57;;;2.25;;
69748;SDS011;57019;52.354;6.584;2022-10-31T03:33:50;5.63;;;2.05;;
69748;SDS011;57019;52.354;6.584;2022-10-31T03:36:16;6.53;;;2.37;;
69748;SDS011;57019;52.354;6.584;2022-10-31T03:38:44;6.88;;;2.20;;
69748;SDS011;57019;52.354;6.584;2022-10-31T03:41:14;6.05;;;2.22;;
69748;SDS011;57019;52.354;6.584;2022-10-31T03:43:54;5.72;;;2.10;;
69748;SDS011;57019;52.354;6.584;2022-10-31T03:46:22;6.82;;;2.30;;
69748;SDS011;57019;52.354;6.584;2022-10-31T03:48:48;6.90;;;2.47;;
69748;SDS011;57019;52.354;6.584;2022-10-31T03:51:28;6.53;;;2.15;;
69748;SDS011;57019;52.354;6.584;2022-10-31T03:53:56;5.90;;;2.10;;
69748;SDS011;57019;52.354;6.584;2022-10-31T03:56:35;7.65;;;2.25;;
69748;SDS011;57019;52.354;6.584;2022-10-31T03:59:09;6.93;;;2.20;;
69748;SDS011;57019;52.354;6.584;2022-10-31T04:01:44;5.93;;;2.10;;
69748;SDS011;57019;52.354;6.584;2022-10-31T04:04:14;6.50;;;1.98;;
69748;SDS011;57019;52.354;6.584;2022-10-31T04:06:40;5.80;;;2.00;;
69748;SDS011;57019;52.354;6.584;2022-10-31T04:09:09;6.00;;;2.10;;
69748;SDS011;57019;52.354;6.584;2022-10-31T04:11:36;5.68;;;1.90;;
69748;SDS011;57019;52.354;6.584;2022-10-31T04:14:05;6.43;;;2.10;;
69748;SDS011;57019;52.354;6.584;2022-10-31T04:16:32;5.63;;;2.20;;
69748;SDS011;57019;52.354;6.584;2022-10-31T04:18:57;6.32;;;2.22;;
69748;SDS011;57019;52.354;6.584;2022-10-31T04:21:29;6.50;;;2.20;;
69748;SDS011;57019;52.354;6.584;2022-10-31T04:23:55;5.78;;;1.95;;
69748;SDS011;57019;52.354;6.584;2022-10-31T04:26:21;5.55;;;2.03;;
69748;SDS011;57019;52.354;6.584;2022-10-31T04:28:46;6.87;;;2.10;;
69748;SDS011;57019;52.354;6.584;2022-10-31T04:31:12;6.07;;;1.90;;
69748;SDS011;57019;52.354;6.584;2022-10-31T04:33:38;6.65;;;1.83;;
69748;SDS011;57019;52.354;6.584;2022-10-31T04:36:03;5.50;;;1.87;;
69748;SDS011;57019;52.354;6.584;2022-10-31T04:38:29;6.13;;;2.10;;
69748;SDS011;57019;52.354;6.584;2022-10-31T04:40:55;6.00;;;1.90;;
69748;SDS011;57019;52.354;6.584;2022-10-31T04:43:20;6.40;;;2.00;;
69748;SDS011;57019;52.354;6.584;2022-10-31T04:45:46;5.70;;;2.05;;
69748;SDS011;57019;52.354;6.584;2022-10-31T04:48:11;6.47;;;2.10;;
69748;SDS011;57019;52.354;6.584;2022-10-31T04:50:36;5.53;;;1.83;;
69748;SDS011;57019;52.354;6.584;2022-10-31T04:53:02;5.43;;;1.80;;
69748;SDS011;57019;52.354;6.584;2022-10-31T04:55:27;5.57;;;1.90;;
69748;SDS011;57019;52.354;6.584;2022-10-31T04:57:53;6.23;;;1.93;;
69748;SDS011;57019;52.354;6.584;2022-10-31T05:00:19;5.80;;;2.10;;
69748;SDS011;57019;52.354;6.584;2022-10-31T05:02:49;5.53;;;1.93;;
69748;SDS011;57019;52.354;6.584;2022-10-31T05:05:22;5.32;;;1.90;;
69748;SDS011;57019;52.354;6.584;2022-10-31T05:07:49;5.85;;;1.90;;
69748;SDS011;57019;52.354;6.584;2022-10-31T05:10:16;5.30;;;1.90;;
69748;SDS011;57019;52.354;6.584;2022-10-31T05:12:50;5.93;;;2.00;;
69748;SDS011;57019;52.354;6.584;2022-10-31T05:15:17;6.00;;;2.00;;
69748;SDS011;57019;52.354;6.584;2022-10-31T05:17:44;5.80;;;2.00;;
69748;SDS011;57019;52.354;6.584;2022-10-31T05:20:13;6.00;;;1.92;;
69748;SDS011;57019;52.354;6.584;2022-10-31T05:22:43;6.43;;;2.00;;
69748;SDS011;57019;52.354;6.584;2022-10-31T05:25:09;5.90;;;1.93;;
69748;SDS011;57019;52.354;6.584;2022-10-31T05:27:35;6.20;;;1.92;;
69748;SDS011;57019;52.354;6.584;2022-10-31T05:30:03;5.97;;;1.98;;
69748;SDS011;57019;52.354;6.584;2022-10-31T05:32:29;5.47;;;1.93;;
69748;SDS011;57019;52.354;6.584;2022-10-31T05:34:55;6.30;;;2.00;;
69748;SDS011;57019;52.354;6.584;2022-10-31T05:37:20;5.40;;;1.90;;
69748;SDS011;57019;52.354;6.584;2022-10-31T05:39:45;6.03;;;2.00;;
69748;SDS011;57019;52.354;6.584;2022-10-31T05:42:10;5.60;;;1.87;;
69748;SDS011;57019;52.354;6.584;2022-10-31T05:44:36;5.13;;;1.80;;
69748;SDS011;57019;52.354;6.584;2022-10-31T05:47:01;5.50;;;1.80;;
69748;SDS011;57019;52.354;6.584;2022-10-31T05:49:26;6.63;;;1.80;;
69748;SDS011;57019;52.354;6.584;2022-10-31T05:51:52;6.13;;;1.97;;
69748;SDS011;57019;52.354;6.584;2022-10-31T05:54:17;5.73;;;1.70;;
69748;SDS011;57019;52.354;6.584;2022-10-31T05:56:42;6.17;;;1.87;;
69748;SDS011;57019;52.354;6.584;2022-10-31T05:59:08;5.33;;;1.80;;
69748;SDS011;57019;52.354;6.584;2022-10-31T06:01:33;7.50;;;2.20;;
69748;SDS011;57019;52.354;6.584;2022-10-31T06:03:58;6.17;;;1.87;;
69748;SDS011;57019;52.354;6.584;2022-10-31T06:06:23;5.60;;;1.90;;
69748;SDS011;57019;52.354;6.584;2022-10-31T06:08:49;5.60;;;1.70;;
69748;SDS011;57019;52.354;6.584;2022-10-31T06:11:14;7.67;;;1.90;;
69748;SDS011;57019;52.354;6.584;2022-10-31T06:13:39;6.60;;;2.00;;
69748;SDS011;57019;52.354;6.584;2022-10-31T06:16:05;5.73;;;2.10;;
69748;SDS011;57019;52.354;6.584;2022-10-31T06:18:30;6.03;;;2.17;;
69748;SDS011;57019;52.354;6.584;2022-10-31T06:20:55;5.60;;;1.83;;
69748;SDS011;57019;52.354;6.584;2022-10-31T06:23:21;5.50;;;1.80;;
69748;SDS011;57019;52.354;6.584;2022-10-31T06:25:49;6.20;;;2.10;;
69748;SDS011;57019;52.354;6.584;2022-10-31T06:28:15;8.20;;;2.00;;
69748;SDS011;57019;52.354;6.584;2022-10-31T06:30:40;6.35;;;2.13;;
69748;SDS011;57019;52.354;6.584;2022-10-31T06:33:06;7.27;;;1.90;;
69748;SDS011;57019;52.354;6.584;2022-10-31T06:35:31;6.93;;;2.27;;
69748;SDS011;57019;52.354;6.584;2022-10-31T06:37:56;7.27;;;2.30;;
69748;SDS011;57019;52.354;6.584;2022-10-31T06:40:22;6.93;;;1.90;;
69748;SDS011;57019;52.354;6.584;2022-10-31T06:42:47;7.27;;;2.30;;
69748;SDS011;57019;52.354;6.584;2022-10-31T06:45:21;12.48;;;2.45;;
69748;SDS011;57019;52.354;6.584;2022-10-31T06:47:52;10.40;;;2.20;;
69748;SDS011;57019;52.354;6.584;2022-10-31T06:50:19;14.43;;;3.35;;
69748;SDS011;57019;52.354;6.584;2022-10-31T06:52:54;7.78;;;2.63;;
69748;SDS011;57019;52.354;6.584;2022-10-31T06:55:21;8.77;;;2.50;;
69748;SDS011;57019;52.354;6.584;2022-10-31T06:57:51;7.20;;;2.70;;
69748;SDS011;57019;52.354;6.584;2022-10-31T07:00:17;7.05;;;2.38;;
69748;SDS011;57019;52.354;6.584;2022-10-31T07:02:43;10.05;;;2.60;;
69748;SDS011;57019;52.354;6.584;2022-10-31T07:05:09;6.77;;;2.37;;
69748;SDS011;57019;52.354;6.584;2022-10-31T07:07:34;8.97;;;2.70;;
69748;SDS011;57019;52.354;6.584;2022-10-31T07:09:59;7.07;;;2.47;;
69748;SDS011;57019;52.354;6.584;2022-10-31T07:12:24;7.87;;;2.47;;
69748;SDS011;57019;52.354;6.584;2022-10-31T07:14:50;6.80;;;2.38;;
69748;SDS011;57019;52.354;6.584;2022-10-31T07:17:15;7.63;;;2.40;;
69748;SDS011;57019;52.354;6.584;2022-10-31T07:19:40;6.77;;;2.27;;
69748;SDS011;57019;52.354;6.584;2022-10-31T07:22:06;7.43;;;2.27;;
69748;SDS011;57019;52.354;6.584;2022-10-31T07:24:31;6.37;;;2.10;;
69748;SDS011;57019;52.354;6.584;2022-10-31T07:26:56;9.87;;;2.30;;
69748;SDS011;57019;52.354;6.584;2022-10-31T07:29:22;7.30;;;2.47;;
69748;SDS011;57019;52.354;6.584;2022-10-31T07:31:47;7.50;;;2.30;;
69748;SDS011;57019;52.354;6.584;2022-10-31T07:34:12;6.30;;;2.23;;
69748;SDS011;57019;52.354;6.584;2022-10-31T07:36:38;7.20;;;2.50;;
69748;SDS011;57019;52.354;6.584;2022-10-31T07:39:03;7.87;;;2.03;;
69748;SDS011;57019;52.354;6.584;2022-10-31T07:41:29;8.83;;;2.60;;
69748;SDS011;57019;52.354;6.584;2022-10-31T07:43:54;7.60;;;2.40;;
69748;SDS011;57019;52.354;6.584;2022-10-31T07:46:21;10.30;;;2.50;;
69748;SDS011;57019;52.354;6.584;2022-10-31T07:48:47;7.97;;;2.37;;
69748;SDS011;57019;52.354;6.584;2022-10-31T07:51:12;6.82;;;2.33;;
69748;SDS011;57019;52.354;6.584;2022-10-31T07:53:37;10.70;;;2.50;;
69748;SDS011;57019;52.354;6.584;2022-10-31T07:56:03;6.80;;;2.10;;
69748;SDS011;57019;52.354;6.584;2022-10-31T07:58:28;7.23;;;2.40;;
69748;SDS011;57019;52.354;6.584;2022-10-31T08:00:53;7.17;;;2.50;;
69748;SDS011;57019;52.354;6.584;2022-10-31T08:03:19;7.50;;;2.30;;
69748;SDS011;57019;52.354;6.584;2022-10-31T08:05:45;7.95;;;2.30;;
69748;SDS011;57019;52.354;6.584;2022-10-31T08:08:11;6.47;;;2.13;;
69748;SDS011;57019;52.354;6.584;2022-10-31T08:10:37;6.75;;;2.45;;
69748;SDS011;57019;52.354;6.584;2022-10-31T08:13:07;7.00;;;2.38;;
69748;SDS011;57019;52.354;6.584;2022-10-31T08:15:34;6.63;;;2.38;;
69748;SDS011;57019;52.354;6.584;2022-10-31T08:18:02;8.30;;;2.20;;
69748;SDS011;57019;52.354;6.584;2022-10-31T08:20:28;7.47;;;2.40;;
69748;SDS011;57019;52.354;6.584;2022-10-31T08:22:54;7.32;;;2.35;;
69748;SDS011;57019;52.354;6.584;2022-10-31T08:25:30;7.20;;;2.40;;
69748;SDS011;57019;52.354;6.584;2022-10-31T08:27:57;7.00;;;2.30;;
69748;SDS011;57019;52.354;6.584;2022-10-31T08:30:24;6.18;;;2.17;;
69748;SDS011;57019;52.354;6.584;2022-10-31T08:33:25;7.22;;;2.40;;
69748;SDS011;57019;52.354;6.584;2022-10-31T08:35:43;7.17;;;2.50;;
69748;SDS011;57019;52.354;6.584;2022-10-31T08:38:10;7.05;;;2.08;;
69748;SDS011;57019;52.354;6.584;2022-10-31T08:40:37;7.28;;;2.42;;
69748;SDS011;57019;52.354;6.584;2022-10-31T08:43:06;6.13;;;2.10;;
69748;SDS011;57019;52.354;6.584;2022-10-31T08:45:48;7.03;;;2.30;;
69748;SDS011;57019;52.354;6.584;2022-10-31T08:48:15;6.27;;;1.97;;
69748;SDS011;57019;52.354;6.584;2022-10-31T08:50:42;6.53;;;2.33;;
69748;SDS011;57019;52.354;6.584;2022-10-31T08:53:15;8.02;;;2.30;;
69748;SDS011;57019;52.354;6.584;2022-10-31T08:55:44;6.63;;;2.22;;
69748;SDS011;57019;52.354;6.584;2022-10-31T08:58:11;7.20;;;2.42;;
69748;SDS011;57019;52.354;6.584;2022-10-31T09:00:38;6.00;;;2.10;;
69748;SDS011;57019;52.354;6.584;2022-10-31T09:03:05;6.45;;;2.50;;
69748;SDS011;57019;52.354;6.584;2022-10-31T09:05:33;7.82;;;2.33;;
69748;SDS011;57019;52.354;6.584;2022-10-31T09:08:00;7.47;;;2.50;;
69748;SDS011;57019;52.354;6.584;2022-10-31T09:10:27;6.32;;;2.20;;
69748;SDS011;57019;52.354;6.584;2022-10-31T09:12:54;8.97;;;2.33;;
69748;SDS011;57019;52.354;6.584;2022-10-31T09:15:23;7.13;;;2.40;;
69748;SDS011;57019;52.354;6.584;2022-10-31T09:17:49;7.25;;;2.10;;
69748;SDS011;57019;52.354;6.584;2022-10-31T09:20:14;7.70;;;2.87;;
69748;SDS011;57019;52.354;6.584;2022-10-31T09:22:40;6.73;;;2.30;;
69748;SDS011;57019;52.354;6.584;2022-10-31T09:25:05;7.10;;;2.20;;
69748;SDS011;57019;52.354;6.584;2022-10-31T09:27:31;7.53;;;2.40;;
69748;SDS011;57019;52.354;6.584;2022-10-31T09:29:56;6.77;;;2.57;;
69748;SDS011;57019;52.354;6.584;2022-10-31T09:32:21;7.60;;;2.15;;
69748;SDS011;57019;52.354;6.584;2022-10-31T09:34:47;6.67;;;2.30;;
69748;SDS011;57019;52.354;6.584;2022-10-31T09:37:12;7.47;;;2.20;;
69748;SDS011;57019;52.354;6.584;2022-10-31T09:39:37;6.53;;;2.40;;
69748;SDS011;57019;52.354;6.584;2022-10-31T09:42:06;5.90;;;2.07;;
69748;SDS011;57019;52.354;6.584;2022-10-31T09:44:50;6.95;;;2.28;;
69748;SDS011;57019;52.354;6.584;2022-10-31T09:47:40;7.82;;;2.20;;
69748;SDS011;57019;52.354;6.584;2022-10-31T09:50:17;6.40;;;2.00;;
69748;SDS011;57019;52.354;6.584;2022-10-31T09:52:56;6.55;;;2.10;;
69748;SDS011;57019;52.354;6.584;2022-10-31T09:58:02;6.30;;;2.20;;
69748;SDS011;57019;52.354;6.584;2022-10-31T10:00:28;6.40;;;2.07;;
69748;SDS011;57019;52.354;6.584;2022-10-31T10:05:37;5.57;;;1.90;;
69748;SDS011;57019;52.354;6.584;2022-10-31T10:08:12;5.97;;;2.03;;
69748;SDS011;57019;52.354;6.584;2022-10-31T10:10:50;7.93;;;2.15;;
69748;SDS011;57019;52.354;6.584;2022-10-31T10:24:41;6.25;;;1.95;;
69748;SDS011;57019;52.354;6.584;2022-10-31T10:32:52;6.15;;;2.15;;
69748;SDS011;57019;52.354;6.584;2022-10-31T10:35:26;6.07;;;1.83;;
69748;SDS011;57019;52.354;6.584;2022-10-31T10:37:56;6.90;;;2.05;;
69748;SDS011;57019;52.354;6.584;2022-10-31T10:40:28;6.03;;;2.13;;
69748;SDS011;57019;52.354;6.584;2022-10-31T10:45:44;6.55;;;2.00;;
69748;SDS011;57019;52.354;6.584;2022-10-31T10:51:23;6.82;;;2.10;;
69748;SDS011;57019;52.354;6.584;2022-10-31T10:54:06;7.87;;;1.83;;
69748;SDS011;57019;52.354;6.584;2022-10-31T10:56:56;5.70;;;1.80;;
69748;SDS011;57019;52.354;6.584;2022-10-31T10:59:28;6.90;;;1.90;;
69748;SDS011;57019;52.354;6.584;2022-10-31T11:01:55;6.05;;;1.88;;
69748;SDS011;57019;52.354;6.584;2022-10-31T11:07:01;5.82;;;1.80;;
69748;SDS011;57019;52.354;6.584;2022-10-31T11:09:32;6.13;;;1.80;;
69748;SDS011;57019;52.354;6.584;2022-10-31T11:11:58;5.60;;;1.70;;
69748;SDS011;57019;52.354;6.584;2022-10-31T11:14:30;6.00;;;2.00;;
69748;SDS011;57019;52.354;6.584;2022-10-31T11:17:17;6.18;;;1.80;;
69748;SDS011;57019;52.354;6.584;2022-10-31T11:19:47;6.28;;;1.80;;
69748;SDS011;57019;52.354;6.584;2022-10-31T11:22:16;5.90;;;1.80;;
69748;SDS011;57019;52.354;6.584;2022-10-31T11:24:42;5.47;;;1.60;;
69748;SDS011;57019;52.354;6.584;2022-10-31T11:27:20;6.07;;;1.90;;
69748;SDS011;57019;52.354;6.584;2022-10-31T11:29:47;5.43;;;1.67;;
69748;SDS011;57019;52.354;6.584;2022-10-31T11:32:18;6.15;;;1.90;;
69748;SDS011;57019;52.354;6.584;2022-10-31T11:34:50;6.53;;;2.00;;
69748;SDS011;57019;52.354;6.584;2022-10-31T11:37:20;6.50;;;2.00;;
69748;SDS011;57019;52.354;6.584;2022-10-31T11:39:49;6.55;;;1.83;;
69748;SDS011;57019;52.354;6.584;2022-10-31T11:42:19;7.45;;;1.90;;
69748;SDS011;57019;52.354;6.584;2022-10-31T11:44:47;8.80;;;2.00;;
69748;SDS011;57019;52.354;6.584;2022-10-31T11:47:14;7.10;;;2.00;;
69748;SDS011;57019;52.354;6.584;2022-10-31T11:49:41;8.50;;;2.10;;
69748;SDS011;57019;52.354;6.584;2022-10-31T11:52:16;6.15;;;2.00;;
69748;SDS011;57019;52.354;6.584;2022-10-31T11:57:41;7.10;;;1.98;;
69748;SDS011;57019;52.354;6.584;2022-10-31T12:00:38;7.93;;;2.10;;
69748;SDS011;57019;52.354;6.584;2022-10-31T12:05:47;5.70;;;1.60;;
69748;SDS011;57019;52.354;6.584;2022-10-31T12:08:20;7.10;;;1.98;;
69748;SDS011;57019;52.354;6.584;2022-10-31T12:10:51;6.43;;;2.27;;
69748;SDS011;57019;52.354;6.584;2022-10-31T12:18:40;6.00;;;1.95;;
69748;SDS011;57019;52.354;6.584;2022-10-31T12:21:31;7.90;;;2.22;;
69748;SDS011;57019;52.354;6.584;2022-10-31T12:29:31;6.47;;;2.22;;
69748;SDS011;57019;52.354;6.584;2022-10-31T12:32:16;6.53;;;2.30;;
69748;SDS011;57019;52.354;6.584;2022-10-31T12:35:00;7.80;;;1.92;;
69748;SDS011;57019;52.354;6.584;2022-10-31T12:37:55;5.70;;;1.80;;
69748;SDS011;57019;52.354;6.584;2022-10-31T12:43:41;6.38;;;2.15;;
69748;SDS011;57019;52.354;6.584;2022-10-31T12:52:04;7.60;;;2.37;;
69748;SDS011;57019;52.354;6.584;2022-10-31T13:02:45;7.90;;;2.10;;
69748;SDS011;57019;52.354;6.584;2022-10-31T13:07:58;6.80;;;2.50;;
69748;SDS011;57019;52.354;6.584;2022-10-31T13:13:10;6.50;;;2.17;;
69748;SDS011;57019;52.354;6.584;2022-10-31T13:15:45;11.60;;;2.75;;
69748;SDS011;57019;52.354;6.584;2022-10-31T13:18:17;7.07;;;2.50;;
69748;SDS011;57019;52.354;6.584;2022-10-31T13:21:38;7.80;;;2.30;;
69748;SDS011;57019;52.354;6.584;2022-10-31T13:24:12;8.57;;;2.65;;
69748;SDS011;57019;52.354;6.584;2022-10-31T13:29:19;8.20;;;2.50;;
69748;SDS011;57019;52.354;6.584;2022-10-31T13:31:46;9.20;;;2.40;;
69748;SDS011;57019;52.354;6.584;2022-10-31T13:42:22;7.80;;;2.60;;
69748;SDS011;57019;52.354;6.584;2022-10-31T13:45:14;7.22;;;2.45;;
69748;SDS011;57019;52.354;6.584;2022-10-31T13:47:42;8.45;;;2.40;;
69748;SDS011;57019;52.354;6.584;2022-10-31T13:52:51;7.88;;;2.40;;
69748;SDS011;57019;52.354;6.584;2022-10-31T13:58:18;7.45;;;2.63;;
69748;SDS011;57019;52.354;6.584;2022-10-31T14:00:56;10.48;;;2.67;;
69748;SDS011;57019;52.354;6.584;2022-10-31T14:03:38;7.28;;;2.38;;
69748;SDS011;57019;52.354;6.584;2022-10-31T14:06:05;7.63;;;2.40;;
69748;SDS011;57019;52.354;6.584;2022-10-31T14:08:35;14.25;;;2.88;;
69748;SDS011;57019;52.354;6.584;2022-10-31T14:11:04;8.52;;;2.60;;
69748;SDS011;57019;52.354;6.584;2022-10-31T14:19:16;8.80;;;2.67;;
69748;SDS011;57019;52.354;6.584;2022-10-31T14:21:45;8.15;;;2.55;;
69748;SDS011;57019;52.354;6.584;2022-10-31T14:26:52;8.50;;;3.00;;
69748;SDS011;57019;52.354;6.584;2022-10-31T14:29:23;9.25;;;2.50;;
69748;SDS011;57019;52.354;6.584;2022-10-31T14:34:39;8.93;;;2.50;;
69748;SDS011;57019;52.354;6.584;2022-10-31T14:50:39;7.75;;;2.90;;
69748;SDS011;57019;52.354;6.584;2022-10-31T14:53:11;9.95;;;2.70;;
69748;SDS011;57019;52.354;6.584;2022-10-31T14:55:43;9.15;;;2.70;;
69748;SDS011;57019;52.354;6.584;2022-10-31T14:58:13;8.97;;;3.00;;
69748;SDS011;57019;52.354;6.584;2022-10-31T15:00:44;11.27;;;2.90;;
69748;SDS011;57019;52.354;6.584;2022-10-31T15:03:11;12.77;;;2.80;;
69748;SDS011;57019;52.354;6.584;2022-10-31T15:05:42;12.20;;;3.10;;
69748;SDS011;57019;52.354;6.584;2022-10-31T15:08:14;7.05;;;2.63;;
69748;SDS011;57019;52.354;6.584;2022-10-31T15:10:52;8.77;;;3.13;;
69748;SDS011;57019;52.354;6.584;2022-10-31T15:13:18;10.17;;;3.30;;
69748;SDS011;57019;52.354;6.584;2022-10-31T15:15:46;10.35;;;3.13;;
69748;SDS011;57019;52.354;6.584;2022-10-31T15:18:20;9.90;;;3.20;;
69748;SDS011;57019;52.354;6.584;2022-10-31T15:20:50;8.48;;;3.40;;
69748;SDS011;57019;52.354;6.584;2022-10-31T15:23:21;13.50;;;3.17;;
69748;SDS011;57019;52.354;6.584;2022-10-31T15:25:49;12.32;;;3.50;;
69748;SDS011;57019;52.354;6.584;2022-10-31T15:28:20;9.57;;;3.07;;
69748;SDS011;57019;52.354;6.584;2022-10-31T15:30:51;8.10;;;3.00;;
69748;SDS011;57019;52.354;6.584;2022-10-31T15:33:19;9.27;;;3.40;;
69748;SDS011;57019;52.354;6.584;2022-10-31T15:36:00;10.23;;;3.57;;
69748;SDS011;57019;52.354;6.584;2022-10-31T15:38:27;9.70;;;3.65;;
69748;SDS011;57019;52.354;6.584;2022-10-31T15:40:57;9.63;;;3.30;;
69748;SDS011;57019;52.354;6.584;2022-10-31T15:43:27;9.95;;;3.45;;
69748;SDS011;57019;52.354;6.584;2022-10-31T15:46:00;10.80;;;3.83;;
69748;SDS011;57019;52.354;6.584;2022-10-31T15:48:26;9.80;;;3.50;;
69748;SDS011;57019;52.354;6.584;2022-10-31T15:50:55;11.98;;;3.85;;
69748;SDS011;57019;52.354;6.584;2022-10-31T15:56:21;9.05;;;3.70;;
69748;SDS011;57019;52.354;6.584;2022-10-31T15:58:49;10.00;;;3.80;;
69748;SDS011;57019;52.354;6.584;2022-10-31T16:03:56;14.05;;;4.78;;
69748;SDS011;57019;52.354;6.584;2022-10-31T16:07:13;11.13;;;4.18;;
69748;SDS011;57019;52.354;6.584;2022-10-31T16:09:50;11.73;;;4.65;;
69748;SDS011;57019;52.354;6.584;2022-10-31T16:12:30;18.58;;;7.65;;
69748;SDS011;57019;52.354;6.584;2022-10-31T16:14:59;21.50;;;8.20;;
69748;SDS011;57019;52.354;6.584;2022-10-31T16:17:25;24.75;;;8.02;;
69748;SDS011;57019;52.354;6.584;2022-10-31T16:19:54;27.30;;;8.68;;
69748;SDS011;57019;52.354;6.584;2022-10-31T16:22:26;22.05;;;7.68;;
69748;SDS011;57019;52.354;6.584;2022-10-31T16:24:55;22.13;;;8.37;;
69748;SDS011;57019;52.354;6.584;2022-10-31T16:27:27;21.25;;;8.35;;
69748;SDS011;57019;52.354;6.584;2022-10-31T16:29:55;19.85;;;7.50;;
69748;SDS011;57019;52.354;6.584;2022-10-31T16:32:26;18.63;;;7.47;;
69748;SDS011;57019;52.354;6.584;2022-10-31T16:37:39;20.47;;;7.63;;
69748;SDS011;57019;52.354;6.584;2022-10-31T16:40:05;18.70;;;7.57;;
69748;SDS011;57019;52.354;6.584;2022-10-31T16:42:30;21.35;;;8.43;;
69748;SDS011;57019;52.354;6.584;2022-10-31T16:44:56;20.23;;;7.30;;
69748;SDS011;57019;52.354;6.584;2022-10-31T16:47:21;20.03;;;7.70;;
69748;SDS011;57019;52.354;6.584;2022-10-31T16:49:47;15.93;;;7.13;;
69748;SDS011;57019;52.354;6.584;2022-10-31T16:52:14;18.17;;;7.00;;
69748;SDS011;57019;52.354;6.584;2022-10-31T16:54:40;17.85;;;7.25;;
69748;SDS011;57019;52.354;6.584;2022-10-31T16:57:06;18.13;;;6.90;;
69748;SDS011;57019;52.354;6.584;2022-10-31T16:59:32;20.73;;;7.40;;
69748;SDS011;57019;52.354;6.584;2022-10-31T17:02:00;15.10;;;6.40;;
69748;SDS011;57019;52.354;6.584;2022-10-31T17:04:28;15.88;;;6.20;;
69748;SDS011;57019;52.354;6.584;2022-10-31T17:06:55;16.75;;;6.32;;
69748;SDS011;57019;52.354;6.584;2022-10-31T17:09:23;22.25;;;6.82;;
69748;SDS011;57019;52.354;6.584;2022-10-31T17:11:49;19.17;;;6.10;;
69748;SDS011;57019;52.354;6.584;2022-10-31T17:14:16;18.57;;;6.33;;
69748;SDS011;57019;52.354;6.584;2022-10-31T17:16:43;15.80;;;6.22;;
69748;SDS011;57019;52.354;6.584;2022-10-31T17:19:11;17.53;;;5.67;;
69748;SDS011;57019;52.354;6.584;2022-10-31T17:21:37;16.92;;;6.03;;
69748;SDS011;57019;52.354;6.584;2022-10-31T17:24:04;15.98;;;6.10;;
69748;SDS011;57019;52.354;6.584;2022-10-31T17:26:30;18.23;;;6.30;;